sensor_id;sensor_type;location;lat;lon;timestamp;P1;durP1;ratioP1;P2;durP2;ratioP2
78672;SDS011;67988;60.086;30.354;2023-03-14T00:02:25;4.75;;;4.20;;
78672;SDS011;67988;60.086;30.354;2023-03-14T00:04:53;4.18;;;2.42;;
78672;SDS011;67988;60.086;30.354;2023-03-14T00:07:21;6.13;;;2.80;;
78672;SDS011;67988;60.086;30.354;2023-03-14T00:09:49;6.13;;;2.22;;
78672;SDS011;67988;60.086;30.354;2023-03-14T00:12:18;8.65;;;2.78;;
78672;SDS011;67988;60.086;30.354;2023-03-14T00:14:45;3.30;;;2.08;;
78672;SDS011;67988;60.086;30.354;2023-03-14T00:17:12;2.88;;;2.50;;
78672;SDS011;67988;60.086;30.354;2023-03-14T00:19:39;3.17;;;2.47;;
78672;SDS011;67988;60.086;30.354;2023-03-14T00:22:06;5.72;;;3.70;;
78672;SDS011;67988;60.086;30.354;2023-03-14T00:24:33;3.30;;;2.65;;
78672;SDS011;67988;60.086;30.354;2023-03-14T00:27:01;4.72;;;1.92;;
78672;SDS011;67988;60.086;30.354;2023-03-14T00:29:29;3.53;;;2.72;;
78672;SDS011;67988;60.086;30.354;2023-03-14T00:31:56;8.18;;;3.45;;
78672;SDS011;67988;60.086;30.354;2023-03-14T00:34:23;3.92;;;2.72;;
78672;SDS011;67988;60.086;30.354;2023-03-14T00:36:55;3.63;;;2.85;;
78672;SDS011;67988;60.086;30.354;2023-03-14T00:39:22;4.40;;;3.25;;
78672;SDS011;67988;60.086;30.354;2023-03-14T00:41:50;5.68;;;3.70;;
78672;SDS011;67988;60.086;30.354;2023-03-14T00:44:17;4.72;;;3.10;;
78672;SDS011;67988;60.086;30.354;2023-03-14T00:46:45;5.43;;;2.80;;
78672;SDS011;67988;60.086;30.354;2023-03-14T00:49:12;3.97;;;2.85;;
78672;SDS011;67988;60.086;30.354;2023-03-14T00:51:40;3.67;;;2.88;;
78672;SDS011;67988;60.086;30.354;2023-03-14T00:54:07;3.70;;;2.78;;
78672;SDS011;67988;60.086;30.354;2023-03-14T00:56:34;3.63;;;3.22;;
78672;SDS011;67988;60.086;30.354;2023-03-14T00:59:01;5.38;;;2.65;;
78672;SDS011;67988;60.086;30.354;2023-03-14T01:01:29;5.22;;;2.67;;
78672;SDS011;67988;60.086;30.354;2023-03-14T01:03:57;3.38;;;2.63;;
78672;SDS011;67988;60.086;30.354;2023-03-14T01:06:25;3.78;;;2.72;;
78672;SDS011;67988;60.086;30.354;2023-03-14T01:08:53;3.50;;;3.00;;
78672;SDS011;67988;60.086;30.354;2023-03-14T01:11:22;2.97;;;2.67;;
78672;SDS011;67988;60.086;30.354;2023-03-14T01:13:51;5.45;;;3.25;;
78672;SDS011;67988;60.086;30.354;2023-03-14T01:16:20;3.25;;;2.63;;
78672;SDS011;67988;60.086;30.354;2023-03-14T01:18:48;4.25;;;3.25;;
78672;SDS011;67988;60.086;30.354;2023-03-14T01:21:17;6.05;;;3.15;;
78672;SDS011;67988;60.086;30.354;2023-03-14T01:23:46;4.10;;;3.10;;
78672;SDS011;67988;60.086;30.354;2023-03-14T01:26:14;8.02;;;3.53;;
78672;SDS011;67988;60.086;30.354;2023-03-14T01:28:45;8.23;;;2.80;;
78672;SDS011;67988;60.086;30.354;2023-03-14T01:31:12;4.00;;;2.22;;
78672;SDS011;67988;60.086;30.354;2023-03-14T01:33:40;4.88;;;2.75;;
78672;SDS011;67988;60.086;30.354;2023-03-14T01:36:09;3.08;;;2.58;;
78672;SDS011;67988;60.086;30.354;2023-03-14T01:38:38;2.95;;;2.03;;
78672;SDS011;67988;60.086;30.354;2023-03-14T01:41:11;3.35;;;2.10;;
78672;SDS011;67988;60.086;30.354;2023-03-14T01:43:41;2.63;;;2.42;;
78672;SDS011;67988;60.086;30.354;2023-03-14T01:46:14;2.63;;;2.38;;
78672;SDS011;67988;60.086;30.354;2023-03-14T01:48:49;5.82;;;2.15;;
78672;SDS011;67988;60.086;30.354;2023-03-14T01:51:25;7.22;;;2.92;;
78672;SDS011;67988;60.086;30.354;2023-03-14T01:54:02;4.20;;;2.42;;
78672;SDS011;67988;60.086;30.354;2023-03-14T01:56:35;3.20;;;2.13;;
78672;SDS011;67988;60.086;30.354;2023-03-14T01:59:04;2.40;;;2.05;;
78672;SDS011;67988;60.086;30.354;2023-03-14T02:01:34;3.88;;;3.58;;
78672;SDS011;67988;60.086;30.354;2023-03-14T02:04:03;2.80;;;2.33;;
78672;SDS011;67988;60.086;30.354;2023-03-14T02:06:34;2.67;;;2.33;;
78672;SDS011;67988;60.086;30.354;2023-03-14T02:09:08;2.75;;;2.17;;
78672;SDS011;67988;60.086;30.354;2023-03-14T02:11:35;2.60;;;1.95;;
78672;SDS011;67988;60.086;30.354;2023-03-14T02:14:06;7.00;;;2.83;;
78672;SDS011;67988;60.086;30.354;2023-03-14T02:17:07;3.35;;;2.20;;
78672;SDS011;67988;60.086;30.354;2023-03-14T02:20:00;3.83;;;2.28;;
78672;SDS011;67988;60.086;30.354;2023-03-14T02:22:38;2.13;;;1.83;;
78672;SDS011;67988;60.086;30.354;2023-03-14T02:25:11;3.00;;;2.67;;
78672;SDS011;67988;60.086;30.354;2023-03-14T02:27:45;2.80;;;2.47;;
78672;SDS011;67988;60.086;30.354;2023-03-14T02:30:15;2.15;;;1.48;;
78672;SDS011;67988;60.086;30.354;2023-03-14T02:32:46;2.17;;;1.77;;
78672;SDS011;67988;60.086;30.354;2023-03-14T02:35:15;2.72;;;2.22;;
78672;SDS011;67988;60.086;30.354;2023-03-14T02:37:47;2.53;;;2.00;;
78672;SDS011;67988;60.086;30.354;2023-03-14T02:40:20;2.42;;;2.17;;
78672;SDS011;67988;60.086;30.354;2023-03-14T02:42:51;3.22;;;1.70;;
78672;SDS011;67988;60.086;30.354;2023-03-14T02:45:28;3.45;;;2.40;;
78672;SDS011;67988;60.086;30.354;2023-03-14T02:48:04;2.83;;;1.90;;
78672;SDS011;67988;60.086;30.354;2023-03-14T02:50:37;2.47;;;1.77;;
78672;SDS011;67988;60.086;30.354;2023-03-14T02:53:05;2.53;;;2.33;;
78672;SDS011;67988;60.086;30.354;2023-03-14T02:55:32;2.70;;;2.22;;
78672;SDS011;67988;60.086;30.354;2023-03-14T02:58:05;2.28;;;1.83;;
78672;SDS011;67988;60.086;30.354;2023-03-14T03:00:33;2.47;;;2.22;;
78672;SDS011;67988;60.086;30.354;2023-03-14T03:03:02;2.28;;;2.08;;
78672;SDS011;67988;60.086;30.354;2023-03-14T03:05:31;4.20;;;2.67;;
78672;SDS011;67988;60.086;30.354;2023-03-14T03:07:59;3.55;;;1.70;;
78672;SDS011;67988;60.086;30.354;2023-03-14T03:10:26;2.15;;;1.50;;
78672;SDS011;67988;60.086;30.354;2023-03-14T03:12:54;2.38;;;2.15;;
78672;SDS011;67988;60.086;30.354;2023-03-14T03:15:25;3.35;;;2.85;;
78672;SDS011;67988;60.086;30.354;2023-03-14T03:17:52;2.90;;;2.60;;
78672;SDS011;67988;60.086;30.354;2023-03-14T03:20:19;2.47;;;2.28;;
78672;SDS011;67988;60.086;30.354;2023-03-14T03:22:46;4.53;;;2.05;;
78672;SDS011;67988;60.086;30.354;2023-03-14T03:25:15;2.42;;;1.63;;
78672;SDS011;67988;60.086;30.354;2023-03-14T03:27:44;2.78;;;2.50;;
78672;SDS011;67988;60.086;30.354;2023-03-14T03:30:13;2.38;;;2.00;;
78672;SDS011;67988;60.086;30.354;2023-03-14T03:32:42;3.63;;;2.72;;
78672;SDS011;67988;60.086;30.354;2023-03-14T03:35:11;3.47;;;2.33;;
78672;SDS011;67988;60.086;30.354;2023-03-14T03:37:39;4.60;;;2.30;;
78672;SDS011;67988;60.086;30.354;2023-03-14T03:40:06;2.45;;;2.17;;
78672;SDS011;67988;60.086;30.354;2023-03-14T03:42:35;2.33;;;2.13;;
78672;SDS011;67988;60.086;30.354;2023-03-14T03:45:05;3.50;;;2.05;;
78672;SDS011;67988;60.086;30.354;2023-03-14T03:47:37;3.25;;;2.47;;
78672;SDS011;67988;60.086;30.354;2023-03-14T03:50:06;2.22;;;2.03;;
78672;SDS011;67988;60.086;30.354;2023-03-14T03:52:34;2.70;;;2.42;;
78672;SDS011;67988;60.086;30.354;2023-03-14T03:55:01;3.38;;;2.55;;
78672;SDS011;67988;60.086;30.354;2023-03-14T03:57:28;3.55;;;2.25;;
78672;SDS011;67988;60.086;30.354;2023-03-14T03:59:56;2.45;;;2.10;;
78672;SDS011;67988;60.086;30.354;2023-03-14T04:02:23;3.13;;;2.13;;
78672;SDS011;67988;60.086;30.354;2023-03-14T04:04:50;2.15;;;1.88;;
78672;SDS011;67988;60.086;30.354;2023-03-14T04:07:19;2.47;;;2.28;;
78672;SDS011;67988;60.086;30.354;2023-03-14T04:09:46;5.10;;;2.00;;
78672;SDS011;67988;60.086;30.354;2023-03-14T04:12:35;3.15;;;2.67;;
78672;SDS011;67988;60.086;30.354;2023-03-14T04:15:17;3.00;;;2.10;;
78672;SDS011;67988;60.086;30.354;2023-03-14T04:17:47;3.10;;;2.10;;
78672;SDS011;67988;60.086;30.354;2023-03-14T04:20:15;4.90;;;2.53;;
78672;SDS011;67988;60.086;30.354;2023-03-14T04:22:43;5.95;;;2.92;;
78672;SDS011;67988;60.086;30.354;2023-03-14T04:25:10;3.65;;;2.35;;
78672;SDS011;67988;60.086;30.354;2023-03-14T04:27:43;2.30;;;1.85;;
78672;SDS011;67988;60.086;30.354;2023-03-14T04:30:17;3.72;;;2.60;;
78672;SDS011;67988;60.086;30.354;2023-03-14T04:32:54;3.38;;;2.78;;
78672;SDS011;67988;60.086;30.354;2023-03-14T04:35:23;4.38;;;3.58;;
78672;SDS011;67988;60.086;30.354;2023-03-14T04:37:56;2.95;;;2.40;;
78672;SDS011;67988;60.086;30.354;2023-03-14T04:40:24;2.90;;;1.92;;
78672;SDS011;67988;60.086;30.354;2023-03-14T04:42:57;4.22;;;2.47;;
78672;SDS011;67988;60.086;30.354;2023-03-14T04:45:24;3.15;;;1.90;;
78672;SDS011;67988;60.086;30.354;2023-03-14T04:47:51;3.03;;;2.67;;
78672;SDS011;67988;60.086;30.354;2023-03-14T04:50:19;5.38;;;2.05;;
78672;SDS011;67988;60.086;30.354;2023-03-14T04:52:47;3.70;;;3.42;;
78672;SDS011;67988;60.086;30.354;2023-03-14T04:55:15;2.67;;;2.47;;
78672;SDS011;67988;60.086;30.354;2023-03-14T04:57:43;4.75;;;2.00;;
78672;SDS011;67988;60.086;30.354;2023-03-14T05:00:10;6.40;;;2.55;;
78672;SDS011;67988;60.086;30.354;2023-03-14T05:02:54;3.55;;;3.25;;
78672;SDS011;67988;60.086;30.354;2023-03-14T05:05:50;5.38;;;2.67;;
78672;SDS011;67988;60.086;30.354;2023-03-14T05:08:46;4.57;;;2.85;;
78672;SDS011;67988;60.086;30.354;2023-03-14T05:11:35;3.63;;;2.03;;
78672;SDS011;67988;60.086;30.354;2023-03-14T05:14:22;5.15;;;3.20;;
78672;SDS011;67988;60.086;30.354;2023-03-14T05:17:08;4.72;;;3.38;;
78672;SDS011;67988;60.086;30.354;2023-03-14T05:19:46;4.63;;;2.97;;
78672;SDS011;67988;60.086;30.354;2023-03-14T05:22:51;3.75;;;2.33;;
78672;SDS011;67988;60.086;30.354;2023-03-14T05:25:42;3.22;;;2.13;;
78672;SDS011;67988;60.086;30.354;2023-03-14T05:28:16;4.47;;;2.78;;
78672;SDS011;67988;60.086;30.354;2023-03-14T05:31:06;4.13;;;3.72;;
78672;SDS011;67988;60.086;30.354;2023-03-14T05:33:59;5.38;;;3.63;;
78672;SDS011;67988;60.086;30.354;2023-03-14T05:36:38;3.33;;;2.55;;
78672;SDS011;67988;60.086;30.354;2023-03-14T05:39:17;3.58;;;2.90;;
78672;SDS011;67988;60.086;30.354;2023-03-14T05:42:10;5.57;;;2.92;;
78672;SDS011;67988;60.086;30.354;2023-03-14T05:44:55;5.32;;;3.00;;
78672;SDS011;67988;60.086;30.354;2023-03-14T05:47:41;4.70;;;3.22;;
78672;SDS011;67988;60.086;30.354;2023-03-14T05:50:20;4.68;;;2.88;;
78672;SDS011;67988;60.086;30.354;2023-03-14T05:52:54;6.47;;;3.25;;
78672;SDS011;67988;60.086;30.354;2023-03-14T05:55:54;5.97;;;2.90;;
78672;SDS011;67988;60.086;30.354;2023-03-14T05:58:45;12.73;;;4.93;;
78672;SDS011;67988;60.086;30.354;2023-03-14T06:01:33;8.45;;;4.85;;
78672;SDS011;67988;60.086;30.354;2023-03-14T06:04:10;5.38;;;3.00;;
78672;SDS011;67988;60.086;30.354;2023-03-14T06:06:37;5.03;;;3.35;;
78672;SDS011;67988;60.086;30.354;2023-03-14T06:09:06;5.78;;;3.55;;
78672;SDS011;67988;60.086;30.354;2023-03-14T06:11:36;4.85;;;3.00;;
78672;SDS011;67988;60.086;30.354;2023-03-14T06:14:04;7.13;;;3.65;;
78672;SDS011;67988;60.086;30.354;2023-03-14T06:16:31;6.50;;;4.32;;
78672;SDS011;67988;60.086;30.354;2023-03-14T06:19:00;5.93;;;3.67;;
78672;SDS011;67988;60.086;30.354;2023-03-14T06:21:28;5.43;;;3.25;;
78672;SDS011;67988;60.086;30.354;2023-03-14T06:23:55;5.95;;;3.10;;
78672;SDS011;67988;60.086;30.354;2023-03-14T06:26:24;5.07;;;3.30;;
78672;SDS011;67988;60.086;30.354;2023-03-14T06:28:50;11.32;;;3.47;;
78672;SDS011;67988;60.086;30.354;2023-03-14T06:31:19;8.18;;;4.72;;
78672;SDS011;67988;60.086;30.354;2023-03-14T06:33:57;7.97;;;4.20;;
78672;SDS011;67988;60.086;30.354;2023-03-14T06:36:29;8.27;;;3.72;;
78672;SDS011;67988;60.086;30.354;2023-03-14T06:38:57;11.93;;;5.55;;
78672;SDS011;67988;60.086;30.354;2023-03-14T06:41:26;14.60;;;4.85;;
78672;SDS011;67988;60.086;30.354;2023-03-14T06:43:53;5.93;;;3.58;;
78672;SDS011;67988;60.086;30.354;2023-03-14T06:46:20;8.23;;;3.83;;
78672;SDS011;67988;60.086;30.354;2023-03-14T06:48:47;5.75;;;2.95;;
78672;SDS011;67988;60.086;30.354;2023-03-14T06:51:15;9.27;;;4.45;;
78672;SDS011;67988;60.086;30.354;2023-03-14T06:53:43;7.38;;;3.78;;
78672;SDS011;67988;60.086;30.354;2023-03-14T06:56:13;5.57;;;2.92;;
78672;SDS011;67988;60.086;30.354;2023-03-14T06:58:40;7.00;;;4.53;;
78672;SDS011;67988;60.086;30.354;2023-03-14T07:01:12;8.05;;;3.63;;
78672;SDS011;67988;60.086;30.354;2023-03-14T07:03:46;12.07;;;4.10;;
78672;SDS011;67988;60.086;30.354;2023-03-14T07:06:13;7.75;;;4.47;;
78672;SDS011;67988;60.086;30.354;2023-03-14T07:08:40;7.72;;;4.35;;
78672;SDS011;67988;60.086;30.354;2023-03-14T07:11:08;16.15;;;4.90;;
78672;SDS011;67988;60.086;30.354;2023-03-14T07:13:37;10.68;;;3.72;;
78672;SDS011;67988;60.086;30.354;2023-03-14T07:16:06;9.48;;;4.65;;
78672;SDS011;67988;60.086;30.354;2023-03-14T07:18:35;6.57;;;4.18;;
78672;SDS011;67988;60.086;30.354;2023-03-14T07:21:04;8.82;;;4.30;;
78672;SDS011;67988;60.086;30.354;2023-03-14T07:23:31;9.18;;;4.72;;
78672;SDS011;67988;60.086;30.354;2023-03-14T07:25:58;7.70;;;4.25;;
78672;SDS011;67988;60.086;30.354;2023-03-14T07:28:27;9.85;;;4.50;;
78672;SDS011;67988;60.086;30.354;2023-03-14T07:33:30;6.40;;;5.18;;
78672;SDS011;67988;60.086;30.354;2023-03-14T07:35:58;7.80;;;4.20;;
78672;SDS011;67988;60.086;30.354;2023-03-14T07:38:25;5.85;;;4.18;;
78672;SDS011;67988;60.086;30.354;2023-03-14T07:41:13;10.77;;;4.28;;
78672;SDS011;67988;60.086;30.354;2023-03-14T07:44:02;11.00;;;4.03;;
78672;SDS011;67988;60.086;30.354;2023-03-14T07:46:29;4.68;;;4.03;;
78672;SDS011;67988;60.086;30.354;2023-03-14T07:48:56;5.93;;;4.43;;
78672;SDS011;67988;60.086;30.354;2023-03-14T07:51:23;6.45;;;3.97;;
78672;SDS011;67988;60.086;30.354;2023-03-14T07:53:50;8.07;;;3.97;;
78672;SDS011;67988;60.086;30.354;2023-03-14T07:56:17;8.30;;;4.50;;
78672;SDS011;67988;60.086;30.354;2023-03-14T07:58:44;9.20;;;4.53;;
78672;SDS011;67988;60.086;30.354;2023-03-14T08:01:12;7.30;;;4.22;;
78672;SDS011;67988;60.086;30.354;2023-03-14T08:03:39;7.90;;;3.80;;
78672;SDS011;67988;60.086;30.354;2023-03-14T08:06:06;9.88;;;4.68;;
78672;SDS011;67988;60.086;30.354;2023-03-14T08:08:33;7.70;;;4.45;;
78672;SDS011;67988;60.086;30.354;2023-03-14T08:11:04;12.80;;;3.72;;
78672;SDS011;67988;60.086;30.354;2023-03-14T08:13:33;12.05;;;5.18;;
78672;SDS011;67988;60.086;30.354;2023-03-14T08:16:01;10.23;;;4.43;;
78672;SDS011;67988;60.086;30.354;2023-03-14T08:18:29;11.70;;;4.63;;
78672;SDS011;67988;60.086;30.354;2023-03-14T08:20:56;15.50;;;4.88;;
78672;SDS011;67988;60.086;30.354;2023-03-14T08:23:23;6.85;;;4.20;;
78672;SDS011;67988;60.086;30.354;2023-03-14T08:25:51;7.00;;;3.90;;
78672;SDS011;67988;60.086;30.354;2023-03-14T08:28:18;11.35;;;5.50;;
78672;SDS011;67988;60.086;30.354;2023-03-14T08:30:45;9.80;;;3.78;;
78672;SDS011;67988;60.086;30.354;2023-03-14T08:33:13;7.57;;;4.30;;
78672;SDS011;67988;60.086;30.354;2023-03-14T08:35:41;8.55;;;4.22;;
78672;SDS011;67988;60.086;30.354;2023-03-14T08:38:08;13.45;;;4.78;;
78672;SDS011;67988;60.086;30.354;2023-03-14T08:40:35;8.00;;;3.70;;
78672;SDS011;67988;60.086;30.354;2023-03-14T08:43:02;9.40;;;4.00;;
78672;SDS011;67988;60.086;30.354;2023-03-14T08:45:29;9.00;;;4.32;;
78672;SDS011;67988;60.086;30.354;2023-03-14T08:47:57;8.98;;;3.90;;
78672;SDS011;67988;60.086;30.354;2023-03-14T08:50:24;8.80;;;2.97;;
78672;SDS011;67988;60.086;30.354;2023-03-14T08:52:52;5.60;;;3.95;;
78672;SDS011;67988;60.086;30.354;2023-03-14T08:55:19;19.98;;;4.28;;
78672;SDS011;67988;60.086;30.354;2023-03-14T08:57:46;5.57;;;3.50;;
78672;SDS011;67988;60.086;30.354;2023-03-14T09:00:13;6.88;;;4.03;;
78672;SDS011;67988;60.086;30.354;2023-03-14T09:02:42;10.00;;;4.22;;
78672;SDS011;67988;60.086;30.354;2023-03-14T09:05:09;3.80;;;2.35;;
78672;SDS011;67988;60.086;30.354;2023-03-14T09:07:36;7.60;;;3.70;;
78672;SDS011;67988;60.086;30.354;2023-03-14T09:10:06;10.88;;;4.03;;
78672;SDS011;67988;60.086;30.354;2023-03-14T09:12:34;11.20;;;4.88;;
78672;SDS011;67988;60.086;30.354;2023-03-14T09:15:01;9.35;;;4.60;;
78672;SDS011;67988;60.086;30.354;2023-03-14T09:17:29;6.43;;;4.10;;
78672;SDS011;67988;60.086;30.354;2023-03-14T09:19:56;8.55;;;4.82;;
78672;SDS011;67988;60.086;30.354;2023-03-14T09:22:23;7.28;;;3.33;;
78672;SDS011;67988;60.086;30.354;2023-03-14T09:24:51;4.80;;;3.05;;
78672;SDS011;67988;60.086;30.354;2023-03-14T09:27:19;7.63;;;3.47;;
78672;SDS011;67988;60.086;30.354;2023-03-14T09:29:46;7.20;;;3.85;;
78672;SDS011;67988;60.086;30.354;2023-03-14T09:32:13;13.65;;;4.38;;
78672;SDS011;67988;60.086;30.354;2023-03-14T09:34:40;8.70;;;3.97;;
78672;SDS011;67988;60.086;30.354;2023-03-14T09:37:07;11.25;;;3.95;;
78672;SDS011;67988;60.086;30.354;2023-03-14T09:39:34;10.77;;;4.57;;
78672;SDS011;67988;60.086;30.354;2023-03-14T09:42:01;7.28;;;3.67;;
78672;SDS011;67988;60.086;30.354;2023-03-14T09:44:32;10.23;;;5.32;;
78672;SDS011;67988;60.086;30.354;2023-03-14T09:47:02;9.50;;;5.47;;
78672;SDS011;67988;60.086;30.354;2023-03-14T09:49:32;5.70;;;4.28;;
78672;SDS011;67988;60.086;30.354;2023-03-14T09:52:01;7.25;;;5.43;;
78672;SDS011;67988;60.086;30.354;2023-03-14T09:54:34;7.20;;;3.85;;
78672;SDS011;67988;60.086;30.354;2023-03-14T09:57:02;8.15;;;4.20;;
78672;SDS011;67988;60.086;30.354;2023-03-14T09:59:32;10.60;;;4.68;;
78672;SDS011;67988;60.086;30.354;2023-03-14T10:02:04;10.55;;;4.28;;
78672;SDS011;67988;60.086;30.354;2023-03-14T10:04:40;8.88;;;3.92;;
78672;SDS011;67988;60.086;30.354;2023-03-14T10:07:11;8.63;;;4.78;;
78672;SDS011;67988;60.086;30.354;2023-03-14T10:09:42;7.85;;;4.40;;
78672;SDS011;67988;60.086;30.354;2023-03-14T10:12:10;9.05;;;4.32;;
78672;SDS011;67988;60.086;30.354;2023-03-14T10:14:45;9.35;;;3.72;;
78672;SDS011;67988;60.086;30.354;2023-03-14T10:17:13;7.85;;;3.45;;
78672;SDS011;67988;60.086;30.354;2023-03-14T10:19:52;12.18;;;4.95;;
78672;SDS011;67988;60.086;30.354;2023-03-14T10:22:21;7.93;;;4.68;;
78672;SDS011;67988;60.086;30.354;2023-03-14T10:24:52;6.07;;;4.03;;
78672;SDS011;67988;60.086;30.354;2023-03-14T10:27:22;9.95;;;4.45;;
78672;SDS011;67988;60.086;30.354;2023-03-14T10:29:57;21.20;;;11.25;;
78672;SDS011;67988;60.086;30.354;2023-03-14T10:32:28;12.70;;;4.97;;
78672;SDS011;67988;60.086;30.354;2023-03-14T10:35:07;11.05;;;5.32;;
78672;SDS011;67988;60.086;30.354;2023-03-14T10:37:48;8.02;;;3.78;;
78672;SDS011;67988;60.086;30.354;2023-03-14T10:40:17;9.68;;;4.45;;
78672;SDS011;67988;60.086;30.354;2023-03-14T10:42:45;11.68;;;5.07;;
78672;SDS011;67988;60.086;30.354;2023-03-14T10:45:35;7.57;;;5.10;;
78672;SDS011;67988;60.086;30.354;2023-03-14T10:48:14;5.95;;;3.38;;
78672;SDS011;67988;60.086;30.354;2023-03-14T10:50:49;8.77;;;4.15;;
78672;SDS011;67988;60.086;30.354;2023-03-14T10:53:21;11.68;;;5.38;;
78672;SDS011;67988;60.086;30.354;2023-03-14T10:55:48;9.27;;;4.38;;
78672;SDS011;67988;60.086;30.354;2023-03-14T10:58:22;9.73;;;5.25;;
78672;SDS011;67988;60.086;30.354;2023-03-14T11:00:53;7.88;;;3.97;;
78672;SDS011;67988;60.086;30.354;2023-03-14T11:03:29;13.07;;;4.10;;
78672;SDS011;67988;60.086;30.354;2023-03-14T11:06:02;8.55;;;4.50;;
78672;SDS011;67988;60.086;30.354;2023-03-14T11:08:37;8.68;;;4.20;;
78672;SDS011;67988;60.086;30.354;2023-03-14T11:11:14;7.72;;;4.05;;
78672;SDS011;67988;60.086;30.354;2023-03-14T11:13:50;7.18;;;4.10;;
78672;SDS011;67988;60.086;30.354;2023-03-14T11:16:29;9.75;;;4.63;;
78672;SDS011;67988;60.086;30.354;2023-03-14T11:21:56;9.32;;;4.38;;
78672;SDS011;67988;60.086;30.354;2023-03-14T11:24:32;8.73;;;4.50;;
78672;SDS011;67988;60.086;30.354;2023-03-14T11:27:10;9.30;;;4.72;;
78672;SDS011;67988;60.086;30.354;2023-03-14T11:29:45;7.70;;;4.40;;
78672;SDS011;67988;60.086;30.354;2023-03-14T11:32:24;10.98;;;4.03;;
78672;SDS011;67988;60.086;30.354;2023-03-14T11:35:03;14.77;;;4.13;;
78672;SDS011;67988;60.086;30.354;2023-03-14T11:37:40;8.50;;;4.38;;
78672;SDS011;67988;60.086;30.354;2023-03-14T11:40:13;11.32;;;3.97;;
78672;SDS011;67988;60.086;30.354;2023-03-14T11:42:44;9.00;;;3.72;;
78672;SDS011;67988;60.086;30.354;2023-03-14T11:45:15;7.50;;;4.10;;
78672;SDS011;67988;60.086;30.354;2023-03-14T11:47:47;7.47;;;4.72;;
78672;SDS011;67988;60.086;30.354;2023-03-14T11:50:21;8.77;;;3.70;;
78672;SDS011;67988;60.086;30.354;2023-03-14T11:52:52;9.70;;;3.75;;
78672;SDS011;67988;60.086;30.354;2023-03-14T11:55:24;13.10;;;5.22;;
78672;SDS011;67988;60.086;30.354;2023-03-14T11:57:56;11.10;;;3.90;;
78672;SDS011;67988;60.086;30.354;2023-03-14T12:00:27;11.38;;;4.88;;
78672;SDS011;67988;60.086;30.354;2023-03-14T12:02:58;9.40;;;5.30;;
78672;SDS011;67988;60.086;30.354;2023-03-14T12:05:37;12.20;;;4.28;;
78672;SDS011;67988;60.086;30.354;2023-03-14T12:08:24;10.27;;;4.40;;
78672;SDS011;67988;60.086;30.354;2023-03-14T12:10:59;14.00;;;4.18;;
78672;SDS011;67988;60.086;30.354;2023-03-14T12:13:29;12.00;;;3.58;;
78672;SDS011;67988;60.086;30.354;2023-03-14T12:16:00;9.52;;;4.82;;
78672;SDS011;67988;60.086;30.354;2023-03-14T12:18:33;18.40;;;5.15;;
78672;SDS011;67988;60.086;30.354;2023-03-14T12:21:04;11.40;;;4.28;;
78672;SDS011;67988;60.086;30.354;2023-03-14T12:23:34;7.45;;;4.45;;
78672;SDS011;67988;60.086;30.354;2023-03-14T12:26:08;12.23;;;4.55;;
78672;SDS011;67988;60.086;30.354;2023-03-14T12:28:42;15.80;;;5.57;;
78672;SDS011;67988;60.086;30.354;2023-03-14T12:31:35;11.13;;;3.97;;
78672;SDS011;67988;60.086;30.354;2023-03-14T12:34:23;9.32;;;3.97;;
78672;SDS011;67988;60.086;30.354;2023-03-14T12:36:59;12.52;;;4.57;;
78672;SDS011;67988;60.086;30.354;2023-03-14T12:39:37;7.20;;;4.00;;
78672;SDS011;67988;60.086;30.354;2023-03-14T12:42:15;11.85;;;4.45;;
78672;SDS011;67988;60.086;30.354;2023-03-14T12:44:48;11.38;;;4.63;;
78672;SDS011;67988;60.086;30.354;2023-03-14T12:50:24;8.57;;;4.30;;
78672;SDS011;67988;60.086;30.354;2023-03-14T12:53:05;9.85;;;4.53;;
78672;SDS011;67988;60.086;30.354;2023-03-14T12:55:43;11.68;;;5.55;;
78672;SDS011;67988;60.086;30.354;2023-03-14T12:58:15;11.52;;;4.80;;
78672;SDS011;67988;60.086;30.354;2023-03-14T13:00:49;15.32;;;5.35;;
78672;SDS011;67988;60.086;30.354;2023-03-14T13:05:54;9.63;;;5.47;;
78672;SDS011;67988;60.086;30.354;2023-03-14T13:08:34;9.60;;;5.03;;
78672;SDS011;67988;60.086;30.354;2023-03-14T13:11:04;9.60;;;4.85;;
78672;SDS011;67988;60.086;30.354;2023-03-14T13:13:34;10.82;;;5.13;;
78672;SDS011;67988;60.086;30.354;2023-03-14T13:16:09;12.35;;;5.05;;
78672;SDS011;67988;60.086;30.354;2023-03-14T13:18:42;11.43;;;4.95;;
78672;SDS011;67988;60.086;30.354;2023-03-14T13:21:11;14.88;;;5.45;;
78672;SDS011;67988;60.086;30.354;2023-03-14T13:23:43;10.60;;;5.22;;
78672;SDS011;67988;60.086;30.354;2023-03-14T13:26:25;10.85;;;4.75;;
78672;SDS011;67988;60.086;30.354;2023-03-14T13:28:59;9.35;;;4.72;;
78672;SDS011;67988;60.086;30.354;2023-03-14T13:31:26;10.73;;;5.03;;
78672;SDS011;67988;60.086;30.354;2023-03-14T13:33:58;28.10;;;6.95;;
78672;SDS011;67988;60.086;30.354;2023-03-14T13:36:28;10.73;;;4.68;;
78672;SDS011;67988;60.086;30.354;2023-03-14T13:38:55;7.78;;;4.38;;
78672;SDS011;67988;60.086;30.354;2023-03-14T13:41:23;10.93;;;4.97;;
78672;SDS011;67988;60.086;30.354;2023-03-14T13:43:50;10.75;;;4.63;;
78672;SDS011;67988;60.086;30.354;2023-03-14T13:46:20;10.85;;;3.95;;
78672;SDS011;67988;60.086;30.354;2023-03-14T13:48:50;10.52;;;5.78;;
78672;SDS011;67988;60.086;30.354;2023-03-14T13:51:20;11.32;;;3.97;;
78672;SDS011;67988;60.086;30.354;2023-03-14T13:53:52;13.98;;;5.65;;
78672;SDS011;67988;60.086;30.354;2023-03-14T13:56:21;17.20;;;5.35;;
78672;SDS011;67988;60.086;30.354;2023-03-14T13:58:49;7.78;;;4.25;;
78672;SDS011;67988;60.086;30.354;2023-03-14T14:01:17;10.48;;;5.20;;
78672;SDS011;67988;60.086;30.354;2023-03-14T14:03:47;13.40;;;4.57;;
78672;SDS011;67988;60.086;30.354;2023-03-14T14:06:19;13.40;;;5.25;;
78672;SDS011;67988;60.086;30.354;2023-03-14T14:08:54;12.65;;;6.22;;
78672;SDS011;67988;60.086;30.354;2023-03-14T14:11:26;10.65;;;5.25;;
78672;SDS011;67988;60.086;30.354;2023-03-14T14:14:09;15.35;;;5.47;;
78672;SDS011;67988;60.086;30.354;2023-03-14T14:16:40;15.27;;;6.50;;
78672;SDS011;67988;60.086;30.354;2023-03-14T14:19:09;9.85;;;5.03;;
78672;SDS011;67988;60.086;30.354;2023-03-14T14:21:37;11.90;;;5.43;;
78672;SDS011;67988;60.086;30.354;2023-03-14T14:24:07;16.73;;;6.30;;
78672;SDS011;67988;60.086;30.354;2023-03-14T14:26:39;10.82;;;5.22;;
78672;SDS011;67988;60.086;30.354;2023-03-14T14:29:16;14.57;;;6.40;;
78672;SDS011;67988;60.086;30.354;2023-03-14T14:31:58;11.43;;;5.50;;
78672;SDS011;67988;60.086;30.354;2023-03-14T14:34:27;10.95;;;5.45;;
78672;SDS011;67988;60.086;30.354;2023-03-14T14:36:54;13.60;;;5.25;;
78672;SDS011;67988;60.086;30.354;2023-03-14T14:39:23;10.93;;;6.07;;
78672;SDS011;67988;60.086;30.354;2023-03-14T14:41:54;11.23;;;5.30;;
78672;SDS011;67988;60.086;30.354;2023-03-14T14:44:21;11.55;;;4.93;;
78672;SDS011;67988;60.086;30.354;2023-03-14T14:46:54;11.07;;;5.25;;
78672;SDS011;67988;60.086;30.354;2023-03-14T14:49:27;9.32;;;5.53;;
78672;SDS011;67988;60.086;30.354;2023-03-14T14:52:00;16.45;;;5.60;;
78672;SDS011;67988;60.086;30.354;2023-03-14T14:54:34;9.85;;;5.60;;
78672;SDS011;67988;60.086;30.354;2023-03-14T14:57:05;15.05;;;6.88;;
78672;SDS011;67988;60.086;30.354;2023-03-14T14:59:44;11.73;;;5.72;;
78672;SDS011;67988;60.086;30.354;2023-03-14T15:02:20;16.70;;;6.38;;
78672;SDS011;67988;60.086;30.354;2023-03-14T15:04:54;13.13;;;5.85;;
78672;SDS011;67988;60.086;30.354;2023-03-14T15:07:21;17.58;;;6.57;;
78672;SDS011;67988;60.086;30.354;2023-03-14T15:09:50;13.70;;;5.70;;